sensor_id;sensor_type;location;lat;lon;timestamp;temperature;humidity
8888;DHT22;4480;52.370;9.748;2023-11-19T00:00:59;6.60;99.90
8888;DHT22;4480;52.370;9.748;2023-11-19T00:03:25;6.60;99.90
8888;DHT22;4480;52.370;9.748;2023-11-19T00:05:53;6.60;99.90
8888;DHT22;4480;52.370;9.748;2023-11-19T00:08:21;6.70;99.90
8888;DHT22;4480;52.370;9.748;2023-11-19T00:10:50;6.70;99.90
8888;DHT22;4480;52.370;9.748;2023-11-19T00:13:17;6.70;99.90
8888;DHT22;4480;52.370;9.748;2023-11-19T00:15:43;6.70;99.90
8888;DHT22;4480;52.370;9.748;2023-11-19T00:18:13;6.70;99.90
8888;DHT22;4480;52.370;9.748;2023-11-19T00:20:39;6.80;99.90
8888;DHT22;4480;52.370;9.748;2023-11-19T00:23:08;6.80;99.90
8888;DHT22;4480;52.370;9.748;2023-11-19T00:25:35;6.80;99.90
8888;DHT22;4480;52.370;9.748;2023-11-19T00:28:01;6.80;99.90
8888;DHT22;4480;52.370;9.748;2023-11-19T00:30:28;6.80;99.90
8888;DHT22;4480;52.370;9.748;2023-11-19T00:32:56;6.80;99.90
8888;DHT22;4480;52.370;9.748;2023-11-19T00:35:23;6.80;99.90
8888;DHT22;4480;52.370;9.748;2023-11-19T00:37:50;6.80;99.90
8888;DHT22;4480;52.370;9.748;2023-11-19T00:40:18;6.90;99.90
8888;DHT22;4480;52.370;9.748;2023-11-19T00:42:48;6.90;99.90
8888;DHT22;4480;52.370;9.748;2023-11-19T00:45:15;6.90;99.90
8888;DHT22;4480;52.370;9.748;2023-11-19T00:47:42;6.90;99.90
8888;DHT22;4480;52.370;9.748;2023-11-19T00:50:09;6.90;99.90
8888;DHT22;4480;52.370;9.748;2023-11-19T00:52:37;6.90;99.90
8888;DHT22;4480;52.370;9.748;2023-11-19T00:55:04;6.90;99.90
8888;DHT22;4480;52.370;9.748;2023-11-19T00:57:33;7.00;99.90
8888;DHT22;4480;52.370;9.748;2023-11-19T01:00:01;7.00;99.90
8888;DHT22;4480;52.370;9.748;2023-11-19T01:02:32;7.00;99.90
8888;DHT22;4480;52.370;9.748;2023-11-19T01:05:00;7.00;99.90
8888;DHT22;4480;52.370;9.748;2023-11-19T01:07:26;7.10;99.90
8888;DHT22;4480;52.370;9.748;2023-11-19T01:09:53;7.10;99.90
8888;DHT22;4480;52.370;9.748;2023-11-19T01:12:20;7.10;99.90
8888;DHT22;4480;52.370;9.748;2023-11-19T01:14:48;7.10;99.90
8888;DHT22;4480;52.370;9.748;2023-11-19T01:17:15;7.20;99.90
8888;DHT22;4480;52.370;9.748;2023-11-19T01:19:42;7.20;99.90
8888;DHT22;4480;52.370;9.748;2023-11-19T01:22:09;7.20;99.90
8888;DHT22;4480;52.370;9.748;2023-11-19T01:24:36;7.30;99.90
8888;DHT22;4480;52.370;9.748;2023-11-19T01:27:03;7.30;99.90
8888;DHT22;4480;52.370;9.748;2023-11-19T01:29:30;7.40;99.90
8888;DHT22;4480;52.370;9.748;2023-11-19T01:31:58;7.40;99.90
8888;DHT22;4480;52.370;9.748;2023-11-19T01:34:24;7.40;99.90
8888;DHT22;4480;52.370;9.748;2023-11-19T01:36:51;7.50;99.90
8888;DHT22;4480;52.370;9.748;2023-11-19T01:39:18;7.50;99.90
8888;DHT22;4480;52.370;9.748;2023-11-19T01:41:45;7.50;99.90
8888;DHT22;4480;52.370;9.748;2023-11-19T01:44:12;7.60;99.90
8888;DHT22;4480;52.370;9.748;2023-11-19T01:46:40;7.60;99.90
8888;DHT22;4480;52.370;9.748;2023-11-19T01:49:09;7.60;99.90
8888;DHT22;4480;52.370;9.748;2023-11-19T01:51:38;7.60;99.90
8888;DHT22;4480;52.370;9.748;2023-11-19T01:54:06;7.70;99.90
8888;DHT22;4480;52.370;9.748;2023-11-19T01:56:34;7.70;99.90
8888;DHT22;4480;52.370;9.748;2023-11-19T01:59:01;7.70;99.90
8888;DHT22;4480;52.370;9.748;2023-11-19T02:01:29;7.80;99.90
8888;DHT22;4480;52.370;9.748;2023-11-19T02:03:58;7.80;99.90
8888;DHT22;4480;52.370;9.748;2023-11-19T02:06:27;7.80;99.90
8888;DHT22;4480;52.370;9.748;2023-11-19T02:08:54;7.80;99.90
8888;DHT22;4480;52.370;9.748;2023-11-19T02:11:21;7.80;99.90
8888;DHT22;4480;52.370;9.748;2023-11-19T02:13:47;7.90;99.90
8888;DHT22;4480;52.370;9.748;2023-11-19T02:16:14;7.90;99.90
8888;DHT22;4480;52.370;9.748;2023-11-19T02:18:41;7.90;99.90
8888;DHT22;4480;52.370;9.748;2023-11-19T02:21:08;7.90;99.90
8888;DHT22;4480;52.370;9.748;2023-11-19T02:23:37;8.00;99.90
8888;DHT22;4480;52.370;9.748;2023-11-19T02:26:12;8.00;99.90
8888;DHT22;4480;52.370;9.748;2023-11-19T02:28:41;8.00;99.90
8888;DHT22;4480;52.370;9.748;2023-11-19T02:31:08;8.00;99.90
8888;DHT22;4480;52.370;9.748;2023-11-19T02:33:36;8.10;99.90
8888;DHT22;4480;52.370;9.748;2023-11-19T02:36:03;8.10;99.90
8888;DHT22;4480;52.370;9.748;2023-11-19T02:38:30;8.10;99.90
8888;DHT22;4480;52.370;9.748;2023-11-19T02:40:57;8.10;99.90
8888;DHT22;4480;52.370;9.748;2023-11-19T02:43:24;8.20;99.90
8888;DHT22;4480;52.370;9.748;2023-11-19T02:45:52;8.20;99.90
8888;DHT22;4480;52.370;9.748;2023-11-19T02:48:21;8.20;99.90
8888;DHT22;4480;52.370;9.748;2023-11-19T02:50:47;8.20;99.90
8888;DHT22;4480;52.370;9.748;2023-11-19T02:53:14;8.20;99.90
8888;DHT22;4480;52.370;9.748;2023-11-19T02:55:42;8.30;99.90
8888;DHT22;4480;52.370;9.748;2023-11-19T02:58:15;8.30;99.90
8888;DHT22;4480;52.370;9.748;2023-11-19T03:00:49;8.30;99.90
8888;DHT22;4480;52.370;9.748;2023-11-19T03:03:24;8.30;99.90
8888;DHT22;4480;52.370;9.748;2023-11-19T03:05:54;8.30;99.90
8888;DHT22;4480;52.370;9.748;2023-11-19T03:08:21;8.30;99.90
8888;DHT22;4480;52.370;9.748;2023-11-19T03:10:49;8.40;99.90
8888;DHT22;4480;52.370;9.748;2023-11-19T03:13:16;8.40;99.90
8888;DHT22;4480;52.370;9.748;2023-11-19T03:15:43;8.40;99.90
8888;DHT22;4480;52.370;9.748;2023-11-19T03:18:10;8.40;99.90
8888;DHT22;4480;52.370;9.748;2023-11-19T03:20:38;8.40;99.90
8888;DHT22;4480;52.370;9.748;2023-11-19T03:23:05;8.50;99.90
8888;DHT22;4480;52.370;9.748;2023-11-19T03:25:32;8.50;99.90
8888;DHT22;4480;52.370;9.748;2023-11-19T03:28:00;8.50;99.90
8888;DHT22;4480;52.370;9.748;2023-11-19T03:30:27;8.60;99.90
8888;DHT22;4480;52.370;9.748;2023-11-19T03:32:54;8.60;99.90
8888;DHT22;4480;52.370;9.748;2023-11-19T03:35:21;8.60;99.90
8888;DHT22;4480;52.370;9.748;2023-11-19T03:37:50;8.60;99.90
8888;DHT22;4480;52.370;9.748;2023-11-19T03:40:17;8.60;99.90
8888;DHT22;4480;52.370;9.748;2023-11-19T03:42:44;8.60;99.90
8888;DHT22;4480;52.370;9.748;2023-11-19T03:45:11;8.70;99.90
8888;DHT22;4480;52.370;9.748;2023-11-19T03:47:38;8.70;99.90
8888;DHT22;4480;52.370;9.748;2023-11-19T03:50:05;8.70;99.90
8888;DHT22;4480;52.370;9.748;2023-11-19T03:52:32;8.70;99.90
8888;DHT22;4480;52.370;9.748;2023-11-19T03:55:01;8.80;99.90
8888;DHT22;4480;52.370;9.748;2023-11-19T03:57:28;8.80;99.90
8888;DHT22;4480;52.370;9.748;2023-11-19T03:59:55;8.80;99.90
8888;DHT22;4480;52.370;9.748;2023-11-19T04:02:23;8.90;99.90
8888;DHT22;4480;52.370;9.748;2023-11-19T04:04:53;8.90;99.90
8888;DHT22;4480;52.370;9.748;2023-11-19T04:07:20;8.90;99.90
8888;DHT22;4480;52.370;9.748;2023-11-19T04:12:31;9.00;99.90
8888;DHT22;4480;52.370;9.748;2023-11-19T04:14:58;9.00;99.90
8888;DHT22;4480;52.370;9.748;2023-11-19T04:17:25;9.00;99.90
8888;DHT22;4480;52.370;9.748;2023-11-19T04:19:51;9.00;99.90
8888;DHT22;4480;52.370;9.748;2023-11-19T04:22:18;9.10;99.90
8888;DHT22;4480;52.370;9.748;2023-11-19T04:24:51;9.10;99.90
8888;DHT22;4480;52.370;9.748;2023-11-19T04:27:18;9.10;99.90
8888;DHT22;4480;52.370;9.748;2023-11-19T04:29:46;9.20;99.90
8888;DHT22;4480;52.370;9.748;2023-11-19T04:32:14;9.30;99.90
8888;DHT22;4480;52.370;9.748;2023-11-19T04:34:41;9.20;99.90
8888;DHT22;4480;52.370;9.748;2023-11-19T04:37:07;9.30;99.90
8888;DHT22;4480;52.370;9.748;2023-11-19T04:39:35;9.30;99.90
8888;DHT22;4480;52.370;9.748;2023-11-19T04:42:03;9.30;99.90
8888;DHT22;4480;52.370;9.748;2023-11-19T04:44:32;9.40;99.90
8888;DHT22;4480;52.370;9.748;2023-11-19T04:47:00;9.40;99.90
8888;DHT22;4480;52.370;9.748;2023-11-19T04:49:27;9.40;99.90
8888;DHT22;4480;52.370;9.748;2023-11-19T04:51:53;9.40;99.90
8888;DHT22;4480;52.370;9.748;2023-11-19T04:54:20;9.50;99.90
8888;DHT22;4480;52.370;9.748;2023-11-19T04:56:47;9.50;99.90
8888;DHT22;4480;52.370;9.748;2023-11-19T04:59:14;9.50;99.90
8888;DHT22;4480;52.370;9.748;2023-11-19T05:01:41;9.50;99.90
8888;DHT22;4480;52.370;9.748;2023-11-19T05:04:09;9.50;99.90
8888;DHT22;4480;52.370;9.748;2023-11-19T05:06:36;9.60;99.90
8888;DHT22;4480;52.370;9.748;2023-11-19T05:09:03;9.60;99.90
8888;DHT22;4480;52.370;9.748;2023-11-19T05:11:32;9.60;99.90
8888;DHT22;4480;52.370;9.748;2023-11-19T05:13:59;9.60;99.90
8888;DHT22;4480;52.370;9.748;2023-11-19T05:16:26;9.60;99.90
8888;DHT22;4480;52.370;9.748;2023-11-19T05:18:53;9.70;99.90
8888;DHT22;4480;52.370;9.748;2023-11-19T05:21:21;9.70;99.90
8888;DHT22;4480;52.370;9.748;2023-11-19T05:23:49;9.70;99.90
8888;DHT22;4480;52.370;9.748;2023-11-19T05:26:19;9.70;99.90
8888;DHT22;4480;52.370;9.748;2023-11-19T05:28:47;9.70;99.90
8888;DHT22;4480;52.370;9.748;2023-11-19T05:31:15;9.70;99.90
8888;DHT22;4480;52.370;9.748;2023-11-19T05:33:42;9.80;99.90
8888;DHT22;4480;52.370;9.748;2023-11-19T05:36:11;9.80;99.90
8888;DHT22;4480;52.370;9.748;2023-11-19T05:38:40;9.80;99.90
8888;DHT22;4480;52.370;9.748;2023-11-19T05:41:07;9.80;99.90
8888;DHT22;4480;52.370;9.748;2023-11-19T05:43:34;9.80;99.90
8888;DHT22;4480;52.370;9.748;2023-11-19T05:46:01;9.80;99.90
8888;DHT22;4480;52.370;9.748;2023-11-19T05:48:27;9.90;99.90
8888;DHT22;4480;52.370;9.748;2023-11-19T05:50:54;9.90;99.90
8888;DHT22;4480;52.370;9.748;2023-11-19T05:53:21;10.00;99.90
8888;DHT22;4480;52.370;9.748;2023-11-19T05:55:49;10.00;99.90
8888;DHT22;4480;52.370;9.748;2023-11-19T05:58:23;10.10;99.90
8888;DHT22;4480;52.370;9.748;2023-11-19T06:00:51;10.10;99.90
8888;DHT22;4480;52.370;9.748;2023-11-19T06:03:17;10.20;99.90
8888;DHT22;4480;52.370;9.748;2023-11-19T06:05:44;10.20;99.90
8888;DHT22;4480;52.370;9.748;2023-11-19T06:08:11;10.30;99.90
8888;DHT22;4480;52.370;9.748;2023-11-19T06:10:40;10.40;99.90
8888;DHT22;4480;52.370;9.748;2023-11-19T06:13:08;10.50;99.90
8888;DHT22;4480;52.370;9.748;2023-11-19T06:15:35;10.70;99.90
8888;DHT22;4480;52.370;9.748;2023-11-19T06:18:02;10.70;99.90
8888;DHT22;4480;52.370;9.748;2023-11-19T06:20:29;10.90;99.90
8888;DHT22;4480;52.370;9.748;2023-11-19T06:22:57;10.90;99.90
8888;DHT22;4480;52.370;9.748;2023-11-19T06:25:24;11.00;99.90
8888;DHT22;4480;52.370;9.748;2023-11-19T06:27:52;11.10;99.90
8888;DHT22;4480;52.370;9.748;2023-11-19T06:30:20;11.10;99.90
8888;DHT22;4480;52.370;9.748;2023-11-19T06:32:47;11.20;99.90
8888;DHT22;4480;52.370;9.748;2023-11-19T06:35:14;11.20;99.90
8888;DHT22;4480;52.370;9.748;2023-11-19T06:37:41;11.20;99.90
8888;DHT22;4480;52.370;9.748;2023-11-19T06:40:08;11.30;99.90
8888;DHT22;4480;52.370;9.748;2023-11-19T06:42:36;11.30;99.90
8888;DHT22;4480;52.370;9.748;2023-11-19T06:45:03;11.40;99.90
8888;DHT22;4480;52.370;9.748;2023-11-19T06:47:31;11.40;99.90
8888;DHT22;4480;52.370;9.748;2023-11-19T06:49:58;11.40;99.90
8888;DHT22;4480;52.370;9.748;2023-11-19T06:52:25;11.50;99.90
8888;DHT22;4480;52.370;9.748;2023-11-19T06:54:52;11.50;99.90
8888;DHT22;4480;52.370;9.748;2023-11-19T06:57:18;11.50;99.90
8888;DHT22;4480;52.370;9.748;2023-11-19T06:59:45;11.50;99.90
8888;DHT22;4480;52.370;9.748;2023-11-19T07:02:12;11.50;99.90
8888;DHT22;4480;52.370;9.748;2023-11-19T07:04:41;11.50;99.90
8888;DHT22;4480;52.370;9.748;2023-11-19T07:07:08;11.50;99.90
8888;DHT22;4480;52.370;9.748;2023-11-19T07:09:35;11.50;99.90
8888;DHT22;4480;52.370;9.748;2023-11-19T07:12:03;11.50;99.90
8888;DHT22;4480;52.370;9.748;2023-11-19T07:14:30;11.60;99.90
8888;DHT22;4480;52.370;9.748;2023-11-19T07:16:57;11.60;99.90
8888;DHT22;4480;52.370;9.748;2023-11-19T07:19:24;11.50;99.90
8888;DHT22;4480;52.370;9.748;2023-11-19T07:21:52;11.40;99.90
8888;DHT22;4480;52.370;9.748;2023-11-19T07:24:20;11.40;99.90
8888;DHT22;4480;52.370;9.748;2023-11-19T07:26:47;11.30;99.90
8888;DHT22;4480;52.370;9.748;2023-11-19T07:29:14;11.30;99.90
8888;DHT22;4480;52.370;9.748;2023-11-19T07:31:41;11.30;99.90
8888;DHT22;4480;52.370;9.748;2023-11-19T07:34:09;11.40;99.90
8888;DHT22;4480;52.370;9.748;2023-11-19T07:36:37;11.50;99.90
8888;DHT22;4480;52.370;9.748;2023-11-19T07:39:05;11.50;99.90
8888;DHT22;4480;52.370;9.748;2023-11-19T07:41:32;11.60;99.90
8888;DHT22;4480;52.370;9.748;2023-11-19T07:44:00;11.60;99.90
8888;DHT22;4480;52.370;9.748;2023-11-19T07:46:26;11.60;99.90
8888;DHT22;4480;52.370;9.748;2023-11-19T07:48:53;11.70;99.90
8888;DHT22;4480;52.370;9.748;2023-11-19T07:51:20;11.70;99.90
8888;DHT22;4480;52.370;9.748;2023-11-19T07:53:47;11.80;99.90
8888;DHT22;4480;52.370;9.748;2023-11-19T07:56:16;11.80;99.90
8888;DHT22;4480;52.370;9.748;2023-11-19T07:58:42;11.80;99.90
8888;DHT22;4480;52.370;9.748;2023-11-19T08:01:09;11.80;99.90
8888;DHT22;4480;52.370;9.748;2023-11-19T08:03:36;11.80;99.90
8888;DHT22;4480;52.370;9.748;2023-11-19T08:06:04;11.80;99.90
8888;DHT22;4480;52.370;9.748;2023-11-19T08:08:31;11.90;99.90
8888;DHT22;4480;52.370;9.748;2023-11-19T08:10:59;11.90;99.90
8888;DHT22;4480;52.370;9.748;2023-11-19T08:13:27;12.00;99.90
8888;DHT22;4480;52.370;9.748;2023-11-19T08:15:53;12.10;99.90
8888;DHT22;4480;52.370;9.748;2023-11-19T08:18:20;12.10;99.90
8888;DHT22;4480;52.370;9.748;2023-11-19T08:20:47;12.10;99.90
8888;DHT22;4480;52.370;9.748;2023-11-19T08:23:18;12.20;99.90
8888;DHT22;4480;52.370;9.748;2023-11-19T08:25:45;12.20;99.90
8888;DHT22;4480;52.370;9.748;2023-11-19T08:28:12;12.10;99.90
8888;DHT22;4480;52.370;9.748;2023-11-19T08:30:40;12.10;99.90
8888;DHT22;4480;52.370;9.748;2023-11-19T08:33:06;12.00;99.90
8888;DHT22;4480;52.370;9.748;2023-11-19T08:35:33;12.00;99.90
8888;DHT22;4480;52.370;9.748;2023-11-19T08:38:00;12.00;99.90
8888;DHT22;4480;52.370;9.748;2023-11-19T08:40:27;12.00;99.90
8888;DHT22;4480;52.370;9.748;2023-11-19T08:42:55;12.00;99.90
8888;DHT22;4480;52.370;9.748;2023-11-19T08:45:22;12.00;99.90
8888;DHT22;4480;52.370;9.748;2023-11-19T08:47:50;12.00;99.90
8888;DHT22;4480;52.370;9.748;2023-11-19T08:50:17;12.00;99.90
8888;DHT22;4480;52.370;9.748;2023-11-19T08:52:43;12.10;99.90
8888;DHT22;4480;52.370;9.748;2023-11-19T08:55:10;12.10;99.90
8888;DHT22;4480;52.370;9.748;2023-11-19T08:57:39;12.10;99.90
8888;DHT22;4480;52.370;9.748;2023-11-19T09:00:07;12.10;99.90
8888;DHT22;4480;52.370;9.748;2023-11-19T09:02:34;12.10;99.90
8888;DHT22;4480;52.370;9.748;2023-11-19T09:05:04;12.20;99.90
8888;DHT22;4480;52.370;9.748;2023-11-19T09:07:31;12.20;99.90
8888;DHT22;4480;52.370;9.748;2023-11-19T09:09:58;12.30;99.90
8888;DHT22;4480;52.370;9.748;2023-11-19T09:12:24;12.40;99.90
8888;DHT22;4480;52.370;9.748;2023-11-19T09:14:51;12.40;99.90
8888;DHT22;4480;52.370;9.748;2023-11-19T09:17:18;12.40;99.90
8888;DHT22;4480;52.370;9.748;2023-11-19T09:19:45;12.40;99.90
8888;DHT22;4480;52.370;9.748;2023-11-19T09:22:13;12.40;99.90
8888;DHT22;4480;52.370;9.748;2023-11-19T09:24:40;12.30;99.90
8888;DHT22;4480;52.370;9.748;2023-11-19T09:27:07;12.30;99.90
8888;DHT22;4480;52.370;9.748;2023-11-19T09:29:33;12.30;99.90
8888;DHT22;4480;52.370;9.748;2023-11-19T09:32:00;12.40;99.90
8888;DHT22;4480;52.370;9.748;2023-11-19T09:34:27;12.50;99.90
8888;DHT22;4480;52.370;9.748;2023-11-19T09:36:54;12.50;99.90
8888;DHT22;4480;52.370;9.748;2023-11-19T09:39:22;12.50;99.90
8888;DHT22;4480;52.370;9.748;2023-11-19T09:41:51;12.50;99.90
8888;DHT22;4480;52.370;9.748;2023-11-19T09:44:18;12.50;99.90
8888;DHT22;4480;52.370;9.748;2023-11-19T09:46:45;12.50;99.90
8888;DHT22;4480;52.370;9.748;2023-11-19T09:49:14;12.50;99.90
8888;DHT22;4480;52.370;9.748;2023-11-19T09:51:43;12.50;99.90
8888;DHT22;4480;52.370;9.748;2023-11-19T09:54:10;12.50;99.90
8888;DHT22;4480;52.370;9.748;2023-11-19T09:56:40;12.60;99.90
8888;DHT22;4480;52.370;9.748;2023-11-19T09:59:08;12.60;99.90
8888;DHT22;4480;52.370;9.748;2023-11-19T10:01:37;12.70;99.90
8888;DHT22;4480;52.370;9.748;2023-11-19T10:04:05;12.70;99.90
8888;DHT22;4480;52.370;9.748;2023-11-19T10:06:33;12.70;99.90
8888;DHT22;4480;52.370;9.748;2023-11-19T10:08:59;12.60;99.90
8888;DHT22;4480;52.370;9.748;2023-11-19T10:11:26;12.60;99.90
8888;DHT22;4480;52.370;9.748;2023-11-19T10:13:55;12.60;99.90
8888;DHT22;4480;52.370;9.748;2023-11-19T10:16:28;12.50;99.90
8888;DHT22;4480;52.370;9.748;2023-11-19T10:18:55;12.50;99.90
8888;DHT22;4480;52.370;9.748;2023-11-19T10:21:22;12.60;99.90
8888;DHT22;4480;52.370;9.748;2023-11-19T10:23:50;12.60;99.90
8888;DHT22;4480;52.370;9.748;2023-11-19T10:26:18;12.60;99.90
8888;DHT22;4480;52.370;9.748;2023-11-19T10:28:46;12.60;99.90
8888;DHT22;4480;52.370;9.748;2023-11-19T10:31:15;12.60;99.90
8888;DHT22;4480;52.370;9.748;2023-11-19T10:33:42;12.60;99.90
8888;DHT22;4480;52.370;9.748;2023-11-19T10:36:11;12.60;99.90
8888;DHT22;4480;52.370;9.748;2023-11-19T10:38:39;12.60;99.90
8888;DHT22;4480;52.370;9.748;2023-11-19T10:41:06;12.60;99.90
8888;DHT22;4480;52.370;9.748;2023-11-19T10:43:43;12.70;99.90
8888;DHT22;4480;52.370;9.748;2023-11-19T10:46:11;12.70;99.90
8888;DHT22;4480;52.370;9.748;2023-11-19T10:48:40;12.70;99.90
8888;DHT22;4480;52.370;9.748;2023-11-19T10:51:07;12.70;99.90
8888;DHT22;4480;52.370;9.748;2023-11-19T10:53:36;12.70;99.90
8888;DHT22;4480;52.370;9.748;2023-11-19T10:56:06;12.70;99.90
8888;DHT22;4480;52.370;9.748;2023-11-19T10:58:37;12.70;99.90
8888;DHT22;4480;52.370;9.748;2023-11-19T11:01:11;12.70;99.90
8888;DHT22;4480;52.370;9.748;2023-11-19T11:03:40;12.60;99.90
8888;DHT22;4480;52.370;9.748;2023-11-19T11:06:08;12.60;99.90
8888;DHT22;4480;52.370;9.748;2023-11-19T11:08:37;12.60;99.90
8888;DHT22;4480;52.370;9.748;2023-11-19T11:11:05;12.70;99.90
8888;DHT22;4480;52.370;9.748;2023-11-19T11:13:33;12.80;99.90
8888;DHT22;4480;52.370;9.748;2023-11-19T11:16:00;12.80;99.90
8888;DHT22;4480;52.370;9.748;2023-11-19T11:18:29;12.90;99.90
8888;DHT22;4480;52.370;9.748;2023-11-19T11:21:00;13.00;99.90
8888;DHT22;4480;52.370;9.748;2023-11-19T11:23:54;13.00;99.90
8888;DHT22;4480;52.370;9.748;2023-11-19T11:26:53;12.90;99.90
8888;DHT22;4480;52.370;9.748;2023-11-19T11:29:28;12.90;99.90
8888;DHT22;4480;52.370;9.748;2023-11-19T11:32:04;12.90;99.90
8888;DHT22;4480;52.370;9.748;2023-11-19T11:34:53;12.90;99.90
8888;DHT22;4480;52.370;9.748;2023-11-19T11:37:32;12.90;99.90
8888;DHT22;4480;52.370;9.748;2023-11-19T11:39:59;13.00;99.90
8888;DHT22;4480;52.370;9.748;2023-11-19T11:42:34;13.00;99.90
8888;DHT22;4480;52.370;9.748;2023-11-19T11:45:02;13.10;99.90
8888;DHT22;4480;52.370;9.748;2023-11-19T11:50:35;13.20;99.90
8888;DHT22;4480;52.370;9.748;2023-11-19T11:53:16;13.30;99.90
8888;DHT22;4480;52.370;9.748;2023-11-19T11:55:57;13.30;99.90
8888;DHT22;4480;52.370;9.748;2023-11-19T11:58:31;13.30;99.90
8888;DHT22;4480;52.370;9.748;2023-11-19T12:01:00;13.30;99.90
8888;DHT22;4480;52.370;9.748;2023-11-19T12:03:29;13.30;99.90
8888;DHT22;4480;52.370;9.748;2023-11-19T12:05:56;13.40;99.90
8888;DHT22;4480;52.370;9.748;2023-11-19T12:08:29;13.30;99.90
8888;DHT22;4480;52.370;9.748;2023-11-19T12:10:58;13.30;99.90
8888;DHT22;4480;52.370;9.748;2023-11-19T12:13:42;13.30;99.90
8888;DHT22;4480;52.370;9.748;2023-11-19T12:16:10;13.40;99.90
8888;DHT22;4480;52.370;9.748;2023-11-19T12:18:39;13.40;99.90
8888;DHT22;4480;52.370;9.748;2023-11-19T12:21:07;13.40;99.90
8888;DHT22;4480;52.370;9.748;2023-11-19T12:23:44;13.40;99.90
8888;DHT22;4480;52.370;9.748;2023-11-19T12:26:32;13.40;99.90
8888;DHT22;4480;52.370;9.748;2023-11-19T12:28:59;13.40;99.90
8888;DHT22;4480;52.370;9.748;2023-11-19T12:31:26;13.40;99.90
8888;DHT22;4480;52.370;9.748;2023-11-19T12:33:53;13.50;99.90
8888;DHT22;4480;52.370;9.748;2023-11-19T12:36:20;13.60;99.90
8888;DHT22;4480;52.370;9.748;2023-11-19T12:38:48;13.60;99.90
8888;DHT22;4480;52.370;9.748;2023-11-19T12:41:16;13.60;99.90
8888;DHT22;4480;52.370;9.748;2023-11-19T12:43:46;13.60;99.90
8888;DHT22;4480;52.370;9.748;2023-11-19T12:46:19;13.50;99.90
8888;DHT22;4480;52.370;9.748;2023-11-19T12:48:46;13.60;99.90
8888;DHT22;4480;52.370;9.748;2023-11-19T12:51:13;13.50;99.90
8888;DHT22;4480;52.370;9.748;2023-11-19T12:53:49;13.50;99.90
8888;DHT22;4480;52.370;9.748;2023-11-19T12:56:18;13.40;99.90
8888;DHT22;4480;52.370;9.748;2023-11-19T12:58:45;13.30;99.90
8888;DHT22;4480;52.370;9.748;2023-11-19T13:01:16;13.30;99.90
8888;DHT22;4480;52.370;9.748;2023-11-19T13:03:43;13.20;99.90
8888;DHT22;4480;52.370;9.748;2023-11-19T13:06:11;13.20;99.90
8888;DHT22;4480;52.370;9.748;2023-11-19T13:08:40;13.10;99.90
8888;DHT22;4480;52.370;9.748;2023-11-19T13:11:09;13.10;99.90
8888;DHT22;4480;52.370;9.748;2023-11-19T13:13:55;13.10;99.90
8888;DHT22;4480;52.370;9.748;2023-11-19T13:16:22;13.10;99.90
8888;DHT22;4480;52.370;9.748;2023-11-19T13:18:48;13.10;99.90
8888;DHT22;4480;52.370;9.748;2023-11-19T13:21:15;13.10;99.90
8888;DHT22;4480;52.370;9.748;2023-11-19T13:23:42;13.10;99.90
8888;DHT22;4480;52.370;9.748;2023-11-19T13:26:10;13.00;99.90
8888;DHT22;4480;52.370;9.748;2023-11-19T13:28:37;13.00;99.90
8888;DHT22;4480;52.370;9.748;2023-11-19T13:31:05;13.00;99.90
8888;DHT22;4480;52.370;9.748;2023-11-19T13:33:32;12.90;99.90
8888;DHT22;4480;52.370;9.748;2023-11-19T13:35:58;12.90;99.90
8888;DHT22;4480;52.370;9.748;2023-11-19T13:38:30;12.90;99.90
8888;DHT22;4480;52.370;9.748;2023-11-19T13:40:57;12.90;99.90
8888;DHT22;4480;52.370;9.748;2023-11-19T13:43:25;12.90;99.90
8888;DHT22;4480;52.370;9.748;2023-11-19T13:45:53;12.90;99.90
8888;DHT22;4480;52.370;9.748;2023-11-19T13:48:20;12.90;99.90
8888;DHT22;4480;52.370;9.748;2023-11-19T13:50:47;12.90;99.90
8888;DHT22;4480;52.370;9.748;2023-11-19T13:53:14;12.80;99.90
8888;DHT22;4480;52.370;9.748;2023-11-19T13:55:41;12.90;99.90
8888;DHT22;4480;52.370;9.748;2023-11-19T13:58:08;12.90;99.90
8888;DHT22;4480;52.370;9.748;2023-11-19T14:00:37;12.90;99.90
8888;DHT22;4480;52.370;9.748;2023-11-19T14:03:03;12.90;99.90
8888;DHT22;4480;52.370;9.748;2023-11-19T14:05:30;12.90;99.90
8888;DHT22;4480;52.370;9.748;2023-11-19T14:07:57;12.90;99.90
8888;DHT22;4480;52.370;9.748;2023-11-19T14:10:24;12.90;99.90
8888;DHT22;4480;52.370;9.748;2023-11-19T14:12:51;12.80;99.90
8888;DHT22;4480;52.370;9.748;2023-11-19T14:15:18;12.80;99.90
8888;DHT22;4480;52.370;9.748;2023-11-19T14:17:46;12.80;99.90
8888;DHT22;4480;52.370;9.748;2023-11-19T14:20:13;12.80;99.90
8888;DHT22;4480;52.370;9.748;2023-11-19T14:22:41;12.90;99.90
8888;DHT22;4480;52.370;9.748;2023-11-19T14:25:09;12.80;99.90
8888;DHT22;4480;52.370;9.748;2023-11-19T14:27:36;12.90;99.90
8888;DHT22;4480;52.370;9.748;2023-11-19T14:30:05;12.90;99.90
8888;DHT22;4480;52.370;9.748;2023-11-19T14:32:32;12.90;99.90
8888;DHT22;4480;52.370;9.748;2023-11-19T14:35:00;12.90;99.90
8888;DHT22;4480;52.370;9.748;2023-11-19T14:37:27;12.80;99.90
8888;DHT22;4480;52.370;9.748;2023-11-19T14:39:54;12.80;99.90
8888;DHT22;4480;52.370;9.748;2023-11-19T14:42:20;12.70;99.90
8888;DHT22;4480;52.370;9.748;2023-11-19T14:44:48;12.60;99.90
8888;DHT22;4480;52.370;9.748;2023-11-19T14:47:15;12.60;99.90
8888;DHT22;4480;52.370;9.748;2023-11-19T14:49:41;12.60;99.90
8888;DHT22;4480;52.370;9.748;2023-11-19T14:52:09;12.40;99.90
8888;DHT22;4480;52.370;9.748;2023-11-19T14:54:36;12.00;99.90
8888;DHT22;4480;52.370;9.748;2023-11-19T14:57:04;11.70;99.90
8888;DHT22;4480;52.370;9.748;2023-11-19T14:59:30;11.40;99.90
8888;DHT22;4480;52.370;9.748;2023-11-19T15:01:58;11.20;99.90
8888;DHT22;4480;52.370;9.748;2023-11-19T15:04:25;11.00;99.90
8888;DHT22;4480;52.370;9.748;2023-11-19T15:06:52;10.90;99.90
8888;DHT22;4480;52.370;9.748;2023-11-19T15:09:20;10.90;99.90
8888;DHT22;4480;52.370;9.748;2023-11-19T15:11:47;10.90;99.90
8888;DHT22;4480;52.370;9.748;2023-11-19T15:14:14;10.80;99.90
8888;DHT22;4480;52.370;9.748;2023-11-19T15:16:42;10.70;99.90
8888;DHT22;4480;52.370;9.748;2023-11-19T15:19:09;10.60;99.90
8888;DHT22;4480;52.370;9.748;2023-11-19T15:21:36;10.60;99.90
8888;DHT22;4480;52.370;9.748;2023-11-19T15:24:03;10.50;99.90
8888;DHT22;4480;52.370;9.748;2023-11-19T15:26:34;10.50;99.90
8888;DHT22;4480;52.370;9.748;2023-11-19T15:29:01;10.50;99.90
8888;DHT22;4480;52.370;9.748;2023-11-19T15:31:28;10.50;99.90
8888;DHT22;4480;52.370;9.748;2023-11-19T15:33:55;10.50;99.90
8888;DHT22;4480;52.370;9.748;2023-11-19T15:36:21;10.50;99.90
8888;DHT22;4480;52.370;9.748;2023-11-19T15:38:48;10.40;99.90
8888;DHT22;4480;52.370;9.748;2023-11-19T15:41:15;10.40;99.90
8888;DHT22;4480;52.370;9.748;2023-11-19T15:43:43;10.40;99.90
8888;DHT22;4480;52.370;9.748;2023-11-19T15:46:10;10.40;99.90
8888;DHT22;4480;52.370;9.748;2023-11-19T15:48:37;10.40;99.90
8888;DHT22;4480;52.370;9.748;2023-11-19T15:51:04;10.30;99.90
8888;DHT22;4480;52.370;9.748;2023-11-19T15:53:31;10.30;99.90
8888;DHT22;4480;52.370;9.748;2023-11-19T15:55:58;10.30;99.90
8888;DHT22;4480;52.370;9.748;2023-11-19T15:58:25;10.30;99.90
8888;DHT22;4480;52.370;9.748;2023-11-19T16:00:53;10.30;99.90
8888;DHT22;4480;52.370;9.748;2023-11-19T16:03:21;10.30;99.90
8888;DHT22;4480;52.370;9.748;2023-11-19T16:05:48;10.30;99.90
8888;DHT22;4480;52.370;9.748;2023-11-19T16:08:14;10.40;99.90
8888;DHT22;4480;52.370;9.748;2023-11-19T16:10:41;10.30;99.90
8888;DHT22;4480;52.370;9.748;2023-11-19T16:13:09;10.30;99.90
8888;DHT22;4480;52.370;9.748;2023-11-19T16:15:36;10.30;99.90
8888;DHT22;4480;52.370;9.748;2023-11-19T16:18:04;10.30;99.90